createdAt,value
2019-01-09T00:01:26.953Z,96320.25
2019-01-09T00:03:53.884Z,96316.55
2019-01-09T00:06:20.504Z,96303.34
2019-01-09T00:08:51.380Z,96307.34
2019-01-09T00:11:17.973Z,96295.50
2019-01-09T00:13:46.224Z,96296.92
2019-01-09T00:16:18.902Z,96290.49
2019-01-09T00:18:45.509Z,96297.63
2019-01-09T00:21:14.070Z,96308.90
2019-01-09T00:23:40.706Z,96314.40
2019-01-09T00:26:07.850Z,96314.20
2019-01-09T00:28:35.114Z,96315.17
2019-01-09T00:31:01.770Z,96320.37
2019-01-09T00:33:28.718Z,96320.70
2019-01-09T00:35:56.723Z,96311.87
2019-01-09T00:38:23.307Z,96318.39
2019-01-09T00:40:51.133Z,96318.30
2019-01-09T00:43:17.897Z,96311.06
2019-01-09T00:45:44.910Z,96298.38
2019-01-09T00:48:11.524Z,96293.55
2019-01-09T00:50:38.145Z,96292.56
2019-01-09T00:53:04.842Z,96282.64
2019-01-09T00:55:31.777Z,96284.18
2019-01-09T00:57:58.698Z,96287.38
2019-01-09T01:00:25.326Z,96287.39
2019-01-09T01:02:54.158Z,96279.06
2019-01-09T01:05:20.782Z,96290.05
2019-01-09T01:07:47.492Z,96289.58
2019-01-09T01:10:14.667Z,96287.79
2019-01-09T01:12:41.621Z,96289.63
2019-01-09T01:15:08.570Z,96288.13
2019-01-09T01:17:37.351Z,96292.94
2019-01-09T01:20:04.004Z,96289.01
2019-01-09T01:22:30.677Z,96292.59
2019-01-09T01:24:57.337Z,96289.72
2019-01-09T01:27:24.011Z,96286.75
2019-01-09T01:29:50.776Z,96278.95
2019-01-09T01:32:22.877Z,96279.66
2019-01-09T01:34:49.840Z,96282.83
2019-01-09T01:37:17.182Z,96286.54
2019-01-09T01:39:43.805Z,96304.56
2019-01-09T01:42:11.709Z,96302.98
2019-01-09T01:44:41.560Z,96299.71
2019-01-09T01:47:08.245Z,96306.45
2019-01-09T01:49:34.989Z,96295.23
2019-01-09T01:52:03.631Z,96292.35
2019-01-09T01:54:30.276Z,96302.59
2019-01-09T01:56:56.904Z,96299.16
2019-01-09T01:59:24.251Z,96292.81
2019-01-09T02:01:51.535Z,96295.41
2019-01-09T02:04:18.748Z,96294.61
2019-01-09T02:06:45.367Z,96286.59
2019-01-09T02:09:12.305Z,96285.66
2019-01-09T02:11:39.280Z,96278.20
2019-01-09T02:14:06.164Z,96286.33
2019-01-09T02:16:33.074Z,96275.42
2019-01-09T02:18:59.712Z,96281.47
2019-01-09T02:21:26.376Z,96280.33
2019-01-09T02:23:53.245Z,96278.52
2019-01-09T02:26:20.175Z,96282.83
2019-01-09T02:28:46.778Z,96283.32
2019-01-09T02:31:13.478Z,96274.09
2019-01-09T02:33:41.989Z,96272.14
2019-01-09T02:36:13.760Z,96268.89
2019-01-09T02:38:37.689Z,96277.22
2019-01-09T02:41:04.443Z,96275.28
2019-01-09T02:43:31.371Z,96262.77
2019-01-09T02:45:57.966Z,96264.03
2019-01-09T02:48:24.939Z,96268.63
2019-01-09T02:50:54.321Z,96269.42
2019-01-09T02:53:20.915Z,96260.13
2019-01-09T02:55:47.543Z,96261.89
2019-01-09T02:58:14.919Z,96259.34
2019-01-09T03:00:42.014Z,96254.02
2019-01-09T03:03:08.722Z,96256.84
2019-01-09T03:05:35.740Z,96254.36
2019-01-09T03:08:02.618Z,96254.77
2019-01-09T03:10:29.507Z,96258.03
2019-01-09T03:12:57.021Z,96247.48
2019-01-09T03:15:23.693Z,96247.72
2019-01-09T03:17:50.323Z,96256.05
2019-01-09T03:20:18.377Z,96245.16
2019-01-09T03:22:45.313Z,96243.81
2019-01-09T03:25:12.223Z,96245.31
2019-01-09T03:27:38.823Z,96234.59
2019-01-09T03:30:05.737Z,96239.88
2019-01-09T03:32:32.549Z,96237.39
2019-01-09T03:34:59.173Z,96243.41
2019-01-09T03:37:25.894Z,96244.86
2019-01-09T03:39:53.120Z,96239.53
2019-01-09T03:42:20.800Z,96232.28
2019-01-09T03:44:47.771Z,96225.97
2019-01-09T03:47:14.756Z,96228.87
2019-01-09T03:49:42.612Z,96229.53
2019-01-09T03:52:09.195Z,96225.16
2019-01-09T03:54:35.808Z,96221.20
2019-01-09T03:57:03.248Z,96228.48
2019-01-09T03:59:30.065Z,96213.69
2019-01-09T04:01:57.303Z,96213.37
2019-01-09T04:04:24.289Z,96215.71
2019-01-09T04:06:51.100Z,96214.58
2019-01-09T04:09:20.638Z,96207.34
2019-01-09T04:11:47.761Z,96204.17
2019-01-09T04:14:14.369Z,96196.54
2019-01-09T04:16:42.573Z,96204.00
2019-01-09T04:19:09.449Z,96203.48
2019-01-09T04:21:36.414Z,96198.01
2019-01-09T04:24:03.670Z,96190.58
2019-01-09T04:26:30.528Z,96195.97
2019-01-09T04:28:57.406Z,96191.50
2019-01-09T04:31:24.291Z,96195.70
2019-01-09T04:33:52.108Z,96191.40
2019-01-09T04:36:19.032Z,96185.53
2019-01-09T04:38:46.405Z,96188.11
2019-01-09T04:41:14.148Z,96182.78
2019-01-09T04:43:42.350Z,96185.73
2019-01-09T04:46:09.117Z,96190.63
2019-01-09T04:48:37.091Z,96192.80
2019-01-09T04:51:04.518Z,96183.45
2019-01-09T04:53:31.245Z,96182.80
2019-01-09T04:55:59.004Z,96177.67
2019-01-09T04:58:26.313Z,96179.39
2019-01-09T05:00:54.039Z,96178.84
2019-01-09T05:03:21.577Z,96179.16
2019-01-09T05:05:50.390Z,96171.16
2019-01-09T05:08:19.097Z,96175.96
2019-01-09T05:10:46.851Z,96183.27
2019-01-09T05:13:13.789Z,96178.16
2019-01-09T05:15:42.612Z,96180.23
2019-01-09T05:18:11.539Z,96187.82
2019-01-09T05:20:39.258Z,96176.44
2019-01-09T05:23:06.782Z,96177.98
2019-01-09T05:25:34.139Z,96178.83
2019-01-09T05:28:01.114Z,96182.36
2019-01-09T05:30:31.536Z,96179.34
2019-01-09T05:33:02.166Z,96171.47
2019-01-09T05:35:28.869Z,96176.20
2019-01-09T05:37:55.925Z,96185.66
2019-01-09T05:40:24.246Z,96187.85
2019-01-09T05:45:38.878Z,96178.75
2019-01-09T05:48:07.373Z,96180.42
2019-01-09T05:50:35.458Z,96178.27
2019-01-09T05:53:16.891Z,96177.37
2019-01-09T05:55:45.258Z,96179.41
2019-01-09T05:58:15.415Z,96185.16
2019-01-09T06:00:47.264Z,96179.39
2019-01-09T06:03:16.027Z,96177.90
2019-01-09T06:05:43.559Z,96183.48
2019-01-09T06:10:59.870Z,96170.69
2019-01-09T06:13:27.760Z,96163.19
2019-01-09T06:15:55.443Z,96166.87
2019-01-09T06:18:22.113Z,96176.10
2019-01-09T06:20:49.238Z,96164.25
2019-01-09T06:23:20.314Z,96161.69
2019-01-09T06:25:49.376Z,96168.11
2019-01-09T06:28:17.332Z,96157.52
2019-01-09T06:30:44.336Z,96165.77
2019-01-09T06:33:11.230Z,96158.02
2019-01-09T06:35:38.437Z,96162.92
2019-01-09T06:38:05.381Z,96168.72
2019-01-09T06:40:32.266Z,96171.84
2019-01-09T06:42:59.085Z,96166.80
2019-01-09T06:45:25.838Z,96170.14
2019-01-09T06:47:59.842Z,96177.09
2019-01-09T06:50:26.767Z,96174.06
2019-01-09T06:52:53.648Z,96180.32
2019-01-09T06:55:22.045Z,96173.55
2019-01-09T06:57:49.776Z,96168.41
2019-01-09T07:00:18.931Z,96173.86
2019-01-09T07:02:47.318Z,96172.84
2019-01-09T07:05:15.729Z,96171.84
2019-01-09T07:07:42.407Z,96174.09
2019-01-09T07:10:10.832Z,96172.84
2019-01-09T07:12:39.094Z,96173.15
2019-01-09T07:15:11.434Z,96173.55
2019-01-09T07:17:34.416Z,96173.64
2019-01-09T07:20:01.943Z,96173.88
2019-01-09T07:22:29.583Z,96175.75
2019-01-09T07:24:56.198Z,96181.13
2019-01-09T07:27:23.095Z,96176.32
2019-01-09T07:29:50.003Z,96176.23
2019-01-09T07:32:18.720Z,96174.84
2019-01-09T07:34:45.627Z,96173.13
2019-01-09T07:37:13.036Z,96177.52
2019-01-09T07:39:39.691Z,96161.80
2019-01-09T07:42:06.373Z,96166.87
2019-01-09T07:44:33.607Z,96171.20
2019-01-09T07:47:02.768Z,96164.41
2019-01-09T07:49:30.027Z,96167.23
2019-01-09T07:51:56.681Z,96166.97
2019-01-09T07:54:23.652Z,96173.43
2019-01-09T07:56:50.562Z,96173.20
2019-01-09T07:59:18.410Z,96171.87
2019-01-09T08:01:45.246Z,96172.52
2019-01-09T08:04:12.821Z,96181.08
2019-01-09T08:06:40.243Z,96176.64
2019-01-09T08:09:09.491Z,96175.55
2019-01-09T08:11:36.287Z,96175.55
2019-01-09T08:14:04.835Z,96173.22
2019-01-09T08:16:31.692Z,96169.34
2019-01-09T08:19:00.951Z,96172.18
2019-01-09T08:21:32.382Z,96175.21
2019-01-09T08:23:59.770Z,96178.44
2019-01-09T08:26:27.692Z,96173.64
2019-01-09T08:28:55.184Z,96177.02
2019-01-09T08:31:22.637Z,96177.67
2019-01-09T08:33:50.492Z,96182.42
2019-01-09T08:36:18.704Z,96186.27
2019-01-09T08:38:45.654Z,96183.17
2019-01-09T08:44:04.378Z,96181.44
2019-01-09T08:46:28.937Z,96182.86
2019-01-09T08:48:56.435Z,96184.56
2019-01-09T08:51:24.867Z,96179.13
2019-01-09T08:53:52.297Z,96187.02
2019-01-09T08:56:18.910Z,96182.11
2019-01-09T08:58:52.608Z,96188.45
2019-01-09T09:01:21.232Z,96190.57
2019-01-09T09:03:48.221Z,96198.20
2019-01-09T09:06:16.620Z,96201.94
2019-01-09T09:08:44.580Z,96207.00
2019-01-09T09:11:11.463Z,96215.45
2019-01-09T09:13:38.361Z,96213.86
2019-01-09T09:16:08.998Z,96208.80
2019-01-09T09:18:37.724Z,96211.51
2019-01-09T09:21:05.934Z,96214.04
2019-01-09T09:23:39.965Z,96212.70
2019-01-09T09:26:08.567Z,96218.46
2019-01-09T09:28:35.182Z,96219.23
2019-01-09T09:31:01.796Z,96219.17
2019-01-09T09:33:28.602Z,96218.58
2019-01-09T09:35:56.590Z,96216.02
2019-01-09T09:38:23.218Z,96215.08
2019-01-09T09:40:49.856Z,96215.92
2019-01-09T09:43:18.012Z,96214.86
2019-01-09T09:45:46.188Z,96210.61
2019-01-09T09:48:12.864Z,96215.63
2019-01-09T09:50:39.692Z,96212.90
2019-01-09T09:53:06.343Z,96211.64
2019-01-09T09:55:35.301Z,96215.67
2019-01-09T09:58:05.774Z,96217.52
2019-01-09T10:00:30.269Z,96205.84
2019-01-09T10:02:57.035Z,96205.14
2019-01-09T10:05:24.735Z,96206.23
2019-01-09T10:07:51.452Z,96199.09
2019-01-09T10:10:18.186Z,96201.50
2019-01-09T10:12:44.846Z,96202.80
2019-01-09T10:15:13.953Z,96199.35
2019-01-09T10:17:40.978Z,96193.61
2019-01-09T10:20:07.875Z,96193.91
2019-01-09T10:22:34.522Z,96189.73
2019-01-09T10:25:01.138Z,96193.25
2019-01-09T10:27:27.957Z,96192.34
2019-01-09T10:29:55.023Z,96191.36
2019-01-09T10:32:21.886Z,96192.02
2019-01-09T10:34:48.470Z,96193.00
2019-01-09T10:37:15.133Z,96191.50
2019-01-09T10:39:41.964Z,96192.25
2019-01-09T10:42:08.848Z,96187.55
2019-01-09T10:44:35.457Z,96187.98
2019-01-09T10:47:02.273Z,96189.52
2019-01-09T10:49:28.989Z,96184.92
2019-01-09T10:51:55.604Z,96182.45
2019-01-09T10:54:22.219Z,96177.84
2019-01-09T10:56:48.995Z,96177.55
2019-01-09T10:59:15.667Z,96172.14
2019-01-09T11:01:42.312Z,96174.50
2019-01-09T11:04:09.170Z,96165.52
2019-01-09T11:06:36.781Z,96170.80
2019-01-09T11:09:03.411Z,96171.69
2019-01-09T11:11:30.144Z,96163.52
2019-01-09T11:13:56.772Z,96165.07
2019-01-09T11:16:26.156Z,96174.03
2019-01-09T11:18:52.736Z,96171.48
2019-01-09T11:21:19.381Z,96174.75
2019-01-09T11:23:46.327Z,96171.61
2019-01-09T11:26:15.764Z,96163.36
2019-01-09T11:28:42.413Z,96166.42
2019-01-09T11:31:09.273Z,96170.13
2019-01-09T11:33:35.878Z,96167.58
2019-01-09T11:36:04.884Z,96169.04
2019-01-09T11:38:31.463Z,96158.16
2019-01-09T11:40:58.319Z,96155.98
2019-01-09T11:43:24.932Z,96146.72
2019-01-09T11:45:51.710Z,96147.03
2019-01-09T11:48:18.851Z,96147.59
2019-01-09T11:50:45.460Z,96149.94
2019-01-09T11:53:12.341Z,96152.41
2019-01-09T11:55:38.973Z,96151.09
2019-01-09T11:58:05.609Z,96140.63
2019-01-09T12:00:32.482Z,96141.05
2019-01-09T12:02:59.086Z,96129.59
2019-01-09T12:05:25.702Z,96135.78
2019-01-09T12:07:52.883Z,96131.25
2019-01-09T12:10:19.641Z,96131.69
2019-01-09T12:12:46.271Z,96126.05
2019-01-09T12:15:13.042Z,96121.89
2019-01-09T12:17:39.696Z,96128.69
2019-01-09T12:20:06.351Z,96129.33
2019-01-09T12:22:32.952Z,96129.42
2019-01-09T12:24:59.787Z,96127.20
2019-01-09T12:27:27.620Z,96130.31
2019-01-09T12:29:54.243Z,96127.03
2019-01-09T12:32:20.890Z,96135.61
2019-01-09T12:34:49.206Z,96126.67
2019-01-09T12:37:16.965Z,96125.31
2019-01-09T12:39:43.544Z,96130.23
2019-01-09T12:42:10.200Z,96131.71
2019-01-09T12:44:36.998Z,96130.08
2019-01-09T12:47:06.304Z,96135.20
2019-01-09T12:49:33.319Z,96130.30
2019-01-09T12:52:00.004Z,96135.13
2019-01-09T12:54:26.624Z,96140.38
2019-01-09T12:56:55.691Z,96139.27
2019-01-09T12:59:22.305Z,96143.29
2019-01-09T13:01:49.641Z,96144.45
2019-01-09T13:04:16.260Z,96145.12
2019-01-09T13:06:46.205Z,96148.67
2019-01-09T13:09:21.938Z,96145.32
2019-01-09T13:11:41.505Z,96154.43
2019-01-09T13:14:08.200Z,96159.92
2019-01-09T13:16:34.793Z,96163.91
2019-01-09T13:19:01.463Z,96160.04
2019-01-09T13:21:28.204Z,96166.05
2019-01-09T13:23:54.823Z,96167.00
2019-01-09T13:26:21.452Z,96166.64
2019-01-09T13:28:49.616Z,96167.77
2019-01-09T13:31:16.312Z,96173.72
2019-01-09T13:33:42.937Z,96174.45
2019-01-09T13:36:09.545Z,96176.53
2019-01-09T13:38:36.468Z,96173.64
2019-01-09T13:41:03.501Z,96175.73
2019-01-09T13:43:30.445Z,96173.95
2019-01-09T13:45:57.067Z,96180.20
2019-01-09T13:48:23.710Z,96175.13
2019-01-09T13:50:50.472Z,96174.05
2019-01-09T13:53:18.247Z,96179.33
2019-01-09T13:55:44.988Z,96178.39
2019-01-09T13:58:16.052Z,96182.41
2019-01-09T14:00:42.710Z,96177.11
2019-01-09T14:03:09.595Z,96180.53
2019-01-09T14:05:36.507Z,96184.74
2019-01-09T14:08:05.096Z,96195.06
2019-01-09T14:10:31.783Z,96190.69
2019-01-09T14:12:58.781Z,96193.23
2019-01-09T14:15:25.641Z,96189.11
2019-01-09T14:17:54.547Z,96194.87
2019-01-09T14:20:21.129Z,96196.66
2019-01-09T14:22:47.838Z,96201.48
2019-01-09T14:25:14.785Z,96202.84
2019-01-09T14:27:43.784Z,96202.94
2019-01-09T14:30:10.591Z,96201.16
2019-01-09T14:32:37.221Z,96202.94
2019-01-09T14:35:03.824Z,96210.98
2019-01-09T14:37:33.280Z,96216.70
2019-01-09T14:39:59.995Z,96218.95
2019-01-09T14:42:26.917Z,96219.02
2019-01-09T14:44:53.519Z,96221.51
2019-01-09T14:47:20.432Z,96231.67
2019-01-09T14:49:46.982Z,96230.75
2019-01-09T14:52:13.579Z,96226.91
2019-01-09T14:54:40.224Z,96224.45
2019-01-09T14:57:07.031Z,96233.95
2019-01-09T14:59:34.714Z,96233.95
2019-01-09T15:02:01.388Z,96232.72
2019-01-09T15:04:28.181Z,96241.69
2019-01-09T15:06:54.825Z,96238.56
2019-01-09T15:09:21.744Z,96233.95
2019-01-09T15:11:48.328Z,96233.34
2019-01-09T15:14:15.230Z,96241.91
2019-01-09T15:16:41.926Z,96247.03
2019-01-09T15:19:08.522Z,96247.03
2019-01-09T15:21:35.306Z,96248.42
2019-01-09T15:24:08.327Z,96251.87
2019-01-09T15:26:30.652Z,96250.94
2019-01-09T15:28:57.388Z,96250.71
2019-01-09T15:31:23.983Z,96254.42
2019-01-09T15:33:50.802Z,96258.45
2019-01-09T15:36:17.513Z,96257.77
2019-01-09T15:38:51.236Z,96258.28
2019-01-09T15:41:15.287Z,96261.07
2019-01-09T15:43:41.923Z,96258.84
2019-01-09T15:46:08.571Z,96264.38
2019-01-09T15:48:35.169Z,96267.72
2019-01-09T15:51:01.758Z,96267.51
2019-01-09T15:53:28.626Z,96266.19
2019-01-09T15:55:55.208Z,96270.73
2019-01-09T15:58:23.932Z,96269.89
2019-01-09T16:00:51.199Z,96270.97
2019-01-09T16:03:17.804Z,96270.27
2019-01-09T16:05:45.785Z,96270.73
2019-01-09T16:08:12.780Z,96267.98
2019-01-09T16:10:39.374Z,96275.55
2019-01-09T16:13:05.976Z,96272.96
2019-01-09T16:15:32.899Z,96276.92
2019-01-09T16:17:59.769Z,96267.38
2019-01-09T16:20:26.392Z,96275.45
2019-01-09T16:22:53.022Z,96274.27
2019-01-09T16:25:21.244Z,96268.74
2019-01-09T16:27:48.060Z,96275.06
2019-01-09T16:30:15.083Z,96276.93
2019-01-09T16:32:41.994Z,96286.28
2019-01-09T16:35:08.610Z,96292.16
2019-01-09T16:37:35.310Z,96291.86
2019-01-09T16:40:02.124Z,96287.58
2019-01-09T16:42:28.755Z,96294.34
2019-01-09T16:44:55.463Z,96289.39
2019-01-09T16:47:22.163Z,96291.15
2019-01-09T16:49:48.787Z,96299.38
2019-01-09T16:52:15.384Z,96298.46
2019-01-09T16:54:42.249Z,96303.30
2019-01-09T16:57:08.862Z,96307.84
2019-01-09T16:59:36.164Z,96307.73
2019-01-09T17:02:02.782Z,96322.64
2019-01-09T17:04:29.715Z,96322.63
2019-01-09T17:06:56.442Z,96323.95
2019-01-09T17:09:26.125Z,96323.10
2019-01-09T17:11:52.715Z,96322.98
2019-01-09T17:14:19.468Z,96322.66
2019-01-09T17:16:46.351Z,96322.34
2019-01-09T17:19:14.766Z,96324.39
2019-01-09T17:21:41.707Z,96332.00
2019-01-09T17:24:08.594Z,96332.23
2019-01-09T17:26:36.249Z,96328.02
2019-01-09T17:29:04.475Z,96334.27
2019-01-09T17:31:31.703Z,96331.66
2019-01-09T17:33:58.307Z,96330.23
2019-01-09T17:36:24.928Z,96334.91
2019-01-09T17:38:52.191Z,96333.83
2019-01-09T17:41:18.803Z,96335.78
2019-01-09T17:43:45.693Z,96337.08
2019-01-09T17:46:12.344Z,96336.19
2019-01-09T17:48:38.952Z,96342.51
2019-01-09T17:51:05.898Z,96338.92
2019-01-09T17:53:32.959Z,96341.79
2019-01-09T17:55:59.878Z,96345.20
2019-01-09T17:58:26.561Z,96352.48
2019-01-09T18:00:53.428Z,96347.86
2019-01-09T18:03:20.032Z,96344.14
2019-01-09T18:05:46.963Z,96342.22
2019-01-09T18:08:13.602Z,96343.27
2019-01-09T18:10:49.750Z,96340.95
2019-01-09T18:13:09.280Z,96346.87
2019-01-09T18:15:36.077Z,96344.64
2019-01-09T18:18:02.773Z,96348.88
2019-01-09T18:20:38.517Z,96348.38
2019-01-09T18:23:05.193Z,96361.02
2019-01-09T18:25:32.142Z,96360.72
2019-01-09T18:27:58.750Z,96359.98
2019-01-09T18:30:27.246Z,96363.19
2019-01-09T18:32:54.405Z,96370.21
2019-01-09T18:35:23.948Z,96375.02
2019-01-09T18:37:52.077Z,96375.66
2019-01-09T18:40:22.608Z,96371.38
2019-01-09T18:42:56.638Z,96368.20
2019-01-09T18:45:24.289Z,96369.72
2019-01-09T18:47:50.850Z,96370.98
2019-01-09T18:50:18.916Z,96378.85
2019-01-09T18:52:45.690Z,96380.86
2019-01-09T18:55:12.296Z,96386.73
2019-01-09T18:57:38.926Z,96389.64
2019-01-09T19:00:08.476Z,96395.44
2019-01-09T19:02:35.068Z,96391.84
2019-01-09T19:05:01.859Z,96394.50
2019-01-09T19:07:29.836Z,96396.27
2019-01-09T19:10:05.510Z,96396.97
2019-01-09T19:12:32.217Z,96405.75
2019-01-09T19:14:58.985Z,96403.12
2019-01-09T19:17:25.842Z,96414.73
2019-01-09T19:19:53.362Z,96419.02
2019-01-09T19:22:20.001Z,96425.37
2019-01-09T19:24:46.693Z,96418.69
2019-01-09T19:27:13.328Z,96422.03
2019-01-09T19:29:40.025Z,96425.20
2019-01-09T19:32:06.627Z,96427.67
2019-01-09T19:34:33.402Z,96427.09
2019-01-09T19:37:00.951Z,96430.66
2019-01-09T19:39:27.619Z,96432.02
2019-01-09T19:41:54.524Z,96431.36
2019-01-09T19:44:21.145Z,96433.05
2019-01-09T19:46:47.692Z,96433.08
2019-01-09T19:49:14.358Z,96438.95
2019-01-09T19:51:41.224Z,96433.20
2019-01-09T19:54:07.848Z,96437.28
2019-01-09T19:56:34.818Z,96441.33
2019-01-09T19:59:01.692Z,96450.63
2019-01-09T20:01:31.205Z,96445.56
2019-01-09T20:03:57.820Z,96449.52
2019-01-09T20:06:24.692Z,96450.20
2019-01-09T20:08:51.293Z,96442.51
2019-01-09T20:11:25.925Z,96441.14
2019-01-09T20:13:46.266Z,96444.46
2019-01-09T20:16:12.931Z,96444.91
2019-01-09T20:18:39.555Z,96456.94
2019-01-09T20:21:07.023Z,96457.09
2019-01-09T20:23:33.618Z,96457.63
2019-01-09T20:26:01.361Z,96459.34
2019-01-09T20:28:28.139Z,96457.84
2019-01-09T20:30:56.629Z,96462.34
2019-01-09T20:33:23.262Z,96458.44
2019-01-09T20:35:50.059Z,96464.06
2019-01-09T20:38:16.692Z,96462.94
2019-01-09T20:40:52.698Z,96461.20
2019-01-09T20:43:17.445Z,96471.25
2019-01-09T20:45:44.185Z,96471.04
2019-01-09T20:48:10.802Z,96464.03
2019-01-09T20:50:37.619Z,96466.13
2019-01-09T20:53:05.700Z,96475.20
2019-01-09T20:55:32.373Z,96466.39
2019-01-09T20:57:59.451Z,96464.03
2019-01-09T21:00:26.270Z,96471.66
2019-01-09T21:02:53.285Z,96473.86
2019-01-09T21:05:19.841Z,96475.37
2019-01-09T21:07:46.523Z,96470.66
2019-01-09T21:10:13.413Z,96478.92
2019-01-09T21:12:40.111Z,96476.52
2019-01-09T21:15:06.697Z,96481.69
2019-01-09T21:17:33.498Z,96481.13
2019-01-09T21:20:01.841Z,96488.69
2019-01-09T21:22:28.525Z,96484.13
2019-01-09T21:24:55.461Z,96486.48
2019-01-09T21:27:22.038Z,96497.53
2019-01-09T21:29:48.695Z,96488.59
2019-01-09T21:32:16.540Z,96495.52
2019-01-09T21:34:44.820Z,96505.88
2019-01-09T21:37:11.734Z,96510.33
2019-01-09T21:39:38.650Z,96510.63
2019-01-09T21:42:07.379Z,96509.64
2019-01-09T21:44:34.907Z,96506.83
2019-01-09T21:47:02.264Z,96505.83
2019-01-09T21:49:28.859Z,96509.53
2019-01-09T21:52:02.415Z,96514.34
2019-01-09T21:54:26.103Z,96514.64
2019-01-09T21:56:52.807Z,96515.50
2019-01-09T21:59:19.459Z,96516.44
2019-01-09T22:01:46.088Z,96520.34
2019-01-09T22:04:12.893Z,96522.39
2019-01-09T22:06:40.076Z,96517.45
2019-01-09T22:09:07.753Z,96520.86
2019-01-09T22:11:35.616Z,96523.61
2019-01-09T22:14:02.447Z,96529.73
2019-01-09T22:16:29.044Z,96527.03
2019-01-09T22:18:55.918Z,96523.86
2019-01-09T22:21:24.563Z,96529.62
2019-01-09T22:23:51.198Z,96531.23
2019-01-09T22:26:18.171Z,96530.78
2019-01-09T22:28:46.065Z,96536.55
2019-01-09T22:31:13.859Z,96536.59
2019-01-09T22:33:40.629Z,96536.98
2019-01-09T22:36:07.189Z,96536.98
2019-01-09T22:38:33.917Z,96545.14
2019-01-09T22:41:01.775Z,96537.71
2019-01-09T22:43:29.545Z,96539.42
2019-01-09T22:45:56.312Z,96537.59
2019-01-09T22:48:23.176Z,96540.73
2019-01-09T22:50:49.819Z,96540.47
2019-01-09T22:53:16.531Z,96541.16
2019-01-09T22:55:43.426Z,96548.87
2019-01-09T22:58:11.316Z,96551.14
2019-01-09T23:00:37.951Z,96546.33
2019-01-09T23:03:05.115Z,96546.70
2019-01-09T23:05:32.959Z,96544.26
2019-01-09T23:07:59.655Z,96551.11
2019-01-09T23:10:26.630Z,96550.33
2019-01-09T23:12:54.038Z,96542.41
2019-01-09T23:15:20.892Z,96547.27
2019-01-09T23:17:47.660Z,96549.42
2019-01-09T23:20:14.277Z,96552.59
2019-01-09T23:22:43.540Z,96554.30
2019-01-09T23:25:10.116Z,96552.02
2019-01-09T23:27:37.715Z,96554.91
2019-01-09T23:30:04.368Z,96559.92
2019-01-09T23:32:49.599Z,96562.74
2019-01-09T23:35:16.208Z,96562.89
2019-01-09T23:37:42.806Z,96564.05
2019-01-09T23:40:09.456Z,96563.36
2019-01-09T23:42:38.163Z,96569.87
2019-01-09T23:45:05.036Z,96563.36
2019-01-09T23:47:35.259Z,96560.09
2019-01-09T23:50:03.321Z,96562.02
2019-01-09T23:52:34.568Z,96564.34
2019-01-09T23:54:58.310Z,96560.94
2019-01-09T23:57:24.943Z,96574.40
2019-01-09T23:59:51.570Z,96572.48
